createdAt,value
2023-02-22T00:02:29.085Z,97874.00
2023-02-22T00:05:02.332Z,97868.44
2023-02-22T00:07:35.876Z,97866.47
2023-02-22T00:10:13.460Z,97866.59
2023-02-22T00:12:49.673Z,97868.00
2023-02-22T00:15:27.412Z,97865.47
2023-02-22T00:18:01.422Z,97862.56
2023-02-22T00:20:34.742Z,97861.44
2023-02-22T00:23:09.950Z,97866.00
2023-02-22T00:25:43.210Z,97865.38
2023-02-22T00:28:18.976Z,97866.53
2023-02-22T00:30:55.032Z,97867.81
2023-02-22T00:33:28.563Z,97865.78
2023-02-22T00:36:01.766Z,97867.56
2023-02-22T00:38:35.195Z,97872.13
2023-02-22T00:41:08.411Z,97858.47
2023-02-22T00:43:42.948Z,97864.38
2023-02-22T00:46:16.445Z,97856.56
2023-02-22T00:48:49.713Z,97849.22
2023-02-22T00:51:23.729Z,97856.19
2023-02-22T00:53:56.902Z,97853.91
2023-02-22T00:56:30.221Z,97856.28
2023-02-22T00:59:05.264Z,97857.56
2023-02-22T01:01:38.590Z,97858.28
2023-02-22T01:04:11.852Z,97845.78
2023-02-22T01:06:45.183Z,97842.91
2023-02-22T01:09:18.640Z,97848.34
2023-02-22T01:11:56.321Z,97843.91
2023-02-22T01:14:31.109Z,97842.78
2023-02-22T01:17:04.857Z,97849.72
2023-02-22T01:19:38.075Z,97846.81
2023-02-22T01:22:11.282Z,97846.31
2023-02-22T01:24:44.553Z,97844.16
2023-02-22T01:27:19.231Z,97836.97
2023-02-22T01:29:53.781Z,97832.53
2023-02-22T01:32:27.137Z,97830.00
2023-02-22T01:35:00.396Z,97834.56
2023-02-22T01:37:34.106Z,97833.06
2023-02-22T01:40:11.174Z,97826.59
2023-02-22T01:42:45.739Z,97830.41
2023-02-22T01:45:45.181Z,97818.41
2023-02-22T01:48:24.920Z,97814.09
2023-02-22T01:51:02.541Z,97805.63
2023-02-22T01:53:41.355Z,97806.13
2023-02-22T01:56:15.415Z,97801.44
2023-02-22T01:58:52.109Z,97806.25
2023-02-22T02:01:28.030Z,97803.09
2023-02-22T02:04:07.349Z,97801.56
2023-02-22T02:06:42.380Z,97793.88
2023-02-22T02:09:22.894Z,97788.53
2023-02-22T02:11:56.586Z,97797.53
2023-02-22T02:14:31.952Z,97799.56
2023-02-22T02:17:07.168Z,97797.28
2023-02-22T02:19:55.449Z,97805.09
2023-02-22T02:22:44.378Z,97791.72
2023-02-22T02:26:04.122Z,97793.88
2023-02-22T02:29:18.835Z,97789.47
2023-02-22T02:32:30.952Z,97785.19
2023-02-22T02:35:11.496Z,97789.72
2023-02-22T02:37:54.181Z,97785.91
2023-02-22T02:40:36.316Z,97786.03
2023-02-22T02:43:18.799Z,97781.47
2023-02-22T02:45:58.628Z,97781.38
2023-02-22T02:48:35.971Z,97773.28
2023-02-22T02:51:14.383Z,97774.53
2023-02-22T02:53:51.396Z,97761.53
2023-02-22T02:56:25.198Z,97760.38
2023-02-22T02:58:58.692Z,97760.16
2023-02-22T03:01:48.755Z,97760.38
2023-02-22T03:04:38.457Z,97755.09
2023-02-22T03:07:47.321Z,97757.13
2023-02-22T03:10:47.170Z,97751.94
2023-02-22T03:13:32.092Z,97749.78
2023-02-22T03:16:17.479Z,97746.75
2023-02-22T03:18:57.700Z,97744.88
2023-02-22T03:21:36.471Z,97738.16
2023-02-22T03:24:14.957Z,97746.75
2023-02-22T03:26:54.604Z,97741.47
2023-02-22T03:29:36.755Z,97736.53
2023-02-22T03:32:17.045Z,97737.53
2023-02-22T03:34:57.237Z,97733.34
2023-02-22T03:37:37.626Z,97733.84
2023-02-22T03:40:16.794Z,97736.47
2023-02-22T03:42:55.022Z,97736.47
2023-02-22T03:45:30.944Z,97734.31
2023-02-22T03:48:10.488Z,97730.28
2023-02-22T03:50:44.050Z,97727.78
2023-02-22T03:53:19.961Z,97723.97
2023-02-22T03:55:57.959Z,97726.63
2023-02-22T03:58:34.597Z,97731.19
2023-02-22T04:01:07.792Z,97731.19
2023-02-22T04:03:42.262Z,97731.53
2023-02-22T04:06:15.634Z,97724.59
2023-02-22T04:08:50.271Z,97725.47
2023-02-22T04:11:23.969Z,97731.78
2023-02-22T04:13:58.520Z,97724.22
2023-02-22T04:16:32.057Z,97725.97
2023-02-22T04:19:06.316Z,97724.13
2023-02-22T04:21:39.820Z,97719.31
2023-02-22T04:24:15.037Z,97714.66
2023-02-22T04:26:48.413Z,97718.31
2023-02-22T04:29:21.813Z,97713.13
2023-02-22T04:31:55.254Z,97712.75
2023-02-22T04:34:28.572Z,97705.06
2023-02-22T04:37:02.477Z,97713.50
2023-02-22T04:39:37.183Z,97708.72
2023-02-22T04:42:10.497Z,97710.00
2023-02-22T04:44:43.735Z,97710.84
2023-02-22T04:47:17.252Z,97710.97
2023-02-22T04:49:50.606Z,97705.16
2023-02-22T04:52:23.850Z,97707.06
2023-02-22T04:54:58.493Z,97702.50
2023-02-22T04:57:32.158Z,97705.16
2023-02-22T05:00:07.219Z,97703.13
2023-02-22T05:02:41.054Z,97703.28
2023-02-22T05:05:16.136Z,97702.78
2023-02-22T05:07:49.604Z,97702.53
2023-02-22T05:10:24.905Z,97702.03
2023-02-22T05:12:58.182Z,97701.25
2023-02-22T05:15:31.406Z,97701.63
2023-02-22T05:18:05.182Z,97697.50
2023-02-22T05:20:38.698Z,97685.75
2023-02-22T05:23:12.043Z,97688.50
2023-02-22T05:25:46.953Z,97694.34
2023-02-22T05:28:20.378Z,97686.47
2023-02-22T05:30:58.168Z,97691.94
2023-02-22T05:33:31.527Z,97687.13
2023-02-22T05:36:05.038Z,97681.31
2023-02-22T05:38:43.474Z,97679.34
2023-02-22T05:41:18.648Z,97672.50
2023-02-22T05:43:52.086Z,97672.50
2023-02-22T05:46:25.475Z,97677.94
2023-02-22T05:48:58.752Z,97680.56
2023-02-22T05:51:32.145Z,97669.38
2023-02-22T05:54:05.905Z,97673.25
2023-02-22T05:56:40.701Z,97676.78
2023-02-22T05:59:13.982Z,97666.94
2023-02-22T06:01:47.247Z,97669.75
2023-02-22T06:04:20.583Z,97669.59
2023-02-22T06:06:53.834Z,97675.53
2023-02-22T06:09:27.224Z,97664.94
2023-02-22T06:12:01.837Z,97678.59
2023-02-22T06:14:35.196Z,97675.41
2023-02-22T06:17:08.491Z,97669.22
2023-02-22T06:19:41.751Z,97676.31
2023-02-22T06:22:19.651Z,97671.50
2023-02-22T06:24:54.948Z,97669.50
2023-02-22T06:27:32.490Z,97679.34
2023-02-22T06:30:07.824Z,97673.75
2023-02-22T06:32:41.208Z,97676.16
2023-02-22T06:35:15.740Z,97680.59
2023-02-22T06:37:49.626Z,97674.91
2023-02-22T06:40:23.122Z,97681.09
2023-02-22T06:42:58.306Z,97672.50
2023-02-22T06:45:32.402Z,97679.34
2023-02-22T06:48:05.840Z,97684.13
2023-02-22T06:50:39.167Z,97677.03
2023-02-22T06:53:12.579Z,97680.22
2023-02-22T06:55:45.959Z,97686.38
2023-02-22T06:58:20.683Z,97678.19
2023-02-22T07:00:54.390Z,97681.59
2023-02-22T07:03:27.704Z,97684.84
2023-02-22T07:06:01.111Z,97694.22
2023-02-22T07:08:34.668Z,97689.66
2023-02-22T07:11:07.941Z,97692.59
2023-02-22T07:13:42.784Z,97682.09
2023-02-22T07:16:16.143Z,97689.25
2023-02-22T07:18:49.892Z,97680.50
2023-02-22T07:21:23.200Z,97683.16
2023-02-22T07:23:59.072Z,97679.19
2023-02-22T07:26:32.566Z,97684.84
2023-02-22T07:29:07.459Z,97687.69
2023-02-22T07:31:41.166Z,97689.41
2023-02-22T07:34:14.495Z,97687.44
2023-02-22T07:36:49.746Z,97686.63
2023-02-22T07:39:23.095Z,97681.97
2023-02-22T07:41:56.422Z,97685.59
2023-02-22T07:44:31.122Z,97678.47
2023-02-22T07:47:04.383Z,97675.03
2023-02-22T07:49:38.107Z,97676.91
2023-02-22T07:52:12.794Z,97672.81
2023-02-22T07:54:48.082Z,97671.50
2023-02-22T07:57:21.435Z,97672.88
2023-02-22T07:59:56.196Z,97671.56
2023-02-22T08:02:29.693Z,97668.13
2023-02-22T08:05:02.937Z,97663.78
2023-02-22T08:07:36.216Z,97668.28
2023-02-22T08:10:11.966Z,97658.97
2023-02-22T08:12:45.529Z,97665.03
2023-02-22T08:15:23.676Z,97662.41
2023-02-22T08:17:57.674Z,97666.16
2023-02-22T08:20:31.654Z,97664.00
2023-02-22T08:23:06.113Z,97651.78
2023-02-22T08:25:39.474Z,97661.06
2023-02-22T08:28:15.800Z,97657.59
2023-02-22T08:30:50.789Z,97658.13
2023-02-22T08:33:38.161Z,97655.69
2023-02-22T08:36:11.573Z,97657.72
2023-02-22T08:38:44.789Z,97663.22
2023-02-22T08:41:18.463Z,97653.91
2023-02-22T08:43:51.770Z,97652.41
2023-02-22T08:46:26.310Z,97652.63
2023-02-22T08:48:59.481Z,97644.81
2023-02-22T08:51:36.361Z,97633.75
2023-02-22T08:54:09.705Z,97641.16
2023-02-22T08:56:42.896Z,97643.50
2023-02-22T08:59:16.458Z,97633.44
2023-02-22T09:01:51.239Z,97635.94
2023-02-22T09:04:24.440Z,97635.56
2023-02-22T09:06:58.063Z,97628.25
2023-02-22T09:09:31.299Z,97629.94
2023-02-22T09:12:05.197Z,97627.84
2023-02-22T09:14:38.877Z,97631.88
2023-02-22T09:17:13.385Z,97632.56
2023-02-22T09:19:46.530Z,97623.41
2023-02-22T09:22:19.747Z,97624.28
2023-02-22T09:24:54.312Z,97616.41
2023-02-22T09:27:28.790Z,97618.13
2023-02-22T09:30:02.214Z,97620.53
2023-02-22T09:32:38.503Z,97621.31
2023-02-22T09:35:13.032Z,97618.41
2023-02-22T09:37:46.590Z,97620.16
2023-02-22T09:40:25.127Z,97613.56
2023-02-22T09:43:14.648Z,97612.53
2023-02-22T09:46:07.043Z,97611.75
2023-02-22T09:48:58.250Z,97613.31
2023-02-22T09:51:40.257Z,97610.69
2023-02-22T09:54:23.180Z,97606.59
2023-02-22T09:56:59.470Z,97607.81
2023-02-22T09:59:40.860Z,97605.25
2023-02-22T10:02:26.534Z,97610.81
2023-02-22T10:05:09.254Z,97608.50
2023-02-22T10:07:49.672Z,97616.63
2023-02-22T10:10:26.554Z,97608.06
2023-02-22T10:13:09.408Z,97620.56
2023-02-22T10:15:52.644Z,97606.66
2023-02-22T10:19:11.110Z,97603.97
2023-02-22T10:22:19.964Z,97612.41
2023-02-22T10:25:01.366Z,97609.97
2023-02-22T10:27:38.991Z,97604.81
2023-02-22T10:30:25.407Z,97611.75
2023-02-22T10:33:06.666Z,97603.66
2023-02-22T10:35:41.983Z,97602.81
2023-02-22T10:38:22.224Z,97596.16
2023-02-22T10:41:00.460Z,97597.41
2023-02-22T10:43:34.349Z,97595.13
2023-02-22T10:46:12.619Z,97598.50
2023-02-22T10:48:49.284Z,97594.75
2023-02-22T10:51:22.661Z,97590.19
2023-02-22T10:54:19.886Z,97589.22
2023-02-22T10:56:56.250Z,97583.41
2023-02-22T10:59:34.239Z,97582.72
2023-02-22T11:02:20.061Z,97576.50
2023-02-22T11:04:55.450Z,97576.00
2023-02-22T11:07:32.014Z,97573.31
2023-02-22T11:10:09.644Z,97576.31
2023-02-22T11:12:44.693Z,97577.63
2023-02-22T11:15:29.572Z,97569.91
2023-02-22T11:18:02.864Z,97567.81
2023-02-22T11:20:40.880Z,97568.84
2023-02-22T11:23:14.703Z,97562.56
2023-02-22T11:25:52.052Z,97562.34
2023-02-22T11:28:32.914Z,97557.88
2023-02-22T11:31:17.582Z,97557.94
2023-02-22T11:36:37.536Z,97550.41
2023-02-22T11:39:24.745Z,97535.81
2023-02-22T11:41:59.941Z,97534.31
2023-02-22T11:44:34.306Z,97538.22
2023-02-22T11:47:13.886Z,97531.66
2023-02-22T11:49:47.528Z,97531.56
2023-02-22T11:52:28.308Z,97526.72
2023-02-22T11:55:36.486Z,97524.00
2023-02-22T11:58:39.157Z,97518.22
2023-02-22T12:01:22.971Z,97512.81
2023-02-22T12:04:42.046Z,97510.75
2023-02-22T12:07:43.222Z,97507.16
2023-02-22T12:10:28.267Z,97496.28
2023-02-22T12:13:23.559Z,97504.53
2023-02-22T12:16:10.701Z,97496.53
2023-02-22T12:19:09.313Z,97492.66
2023-02-22T12:21:46.368Z,97500.13
2023-02-22T12:24:23.798Z,97493.25
2023-02-22T12:27:04.076Z,97488.53
2023-02-22T12:29:47.159Z,97485.50
2023-02-22T12:32:35.133Z,97478.22
2023-02-22T12:35:16.828Z,97483.53
2023-02-22T12:38:00.185Z,97487.00
2023-02-22T12:40:40.549Z,97477.47
2023-02-22T12:43:22.627Z,97477.47
2023-02-22T12:46:04.384Z,97472.31
2023-02-22T12:48:45.974Z,97469.28
2023-02-22T12:51:28.743Z,97467.91
2023-02-22T12:54:12.998Z,97468.06
2023-02-22T12:56:54.910Z,97468.41
2023-02-22T12:59:33.928Z,97466.50
2023-02-22T13:02:18.623Z,97466.09
2023-02-22T13:04:51.941Z,97462.03
2023-02-22T13:07:40.879Z,97466.03
2023-02-22T13:10:57.330Z,97458.81
2023-02-22T13:13:39.600Z,97462.88
2023-02-22T13:16:28.598Z,97448.06
2023-02-22T13:19:09.963Z,97447.22
2023-02-22T13:21:49.198Z,97450.50
2023-02-22T13:24:27.535Z,97448.56
2023-02-22T13:27:05.563Z,97444.47
2023-02-22T13:29:41.707Z,97444.59
2023-02-22T13:32:31.049Z,97443.75
2023-02-22T13:35:31.733Z,97438.00
2023-02-22T13:38:30.927Z,97435.28
2023-02-22T13:41:31.161Z,97439.81
2023-02-22T13:44:37.699Z,97435.97
2023-02-22T13:48:05.959Z,97442.03
2023-02-22T13:51:16.166Z,97446.50
2023-02-22T13:53:56.058Z,97446.03
2023-02-22T13:56:30.474Z,97445.78
2023-02-22T13:59:06.092Z,97443.47
2023-02-22T14:01:45.746Z,97446.59
2023-02-22T14:04:36.492Z,97445.78
2023-02-22T14:07:59.741Z,97447.69
2023-02-22T14:10:50.057Z,97445.66
2023-02-22T14:13:26.684Z,97443.63
2023-02-22T14:16:24.385Z,97448.84
2023-02-22T14:19:06.611Z,97451.03
2023-02-22T14:22:02.174Z,97446.19
2023-02-22T14:24:46.082Z,97446.13
2023-02-22T14:27:19.791Z,97445.94
2023-02-22T14:29:55.975Z,97446.09
2023-02-22T14:32:33.820Z,97450.06
2023-02-22T14:35:25.475Z,97448.03
2023-02-22T14:38:03.088Z,97444.25
2023-02-22T14:40:39.610Z,97444.00
2023-02-22T14:43:19.926Z,97447.53
2023-02-22T14:45:56.397Z,97445.31
2023-02-22T14:48:39.592Z,97445.22
2023-02-22T14:51:23.191Z,97445.78
2023-02-22T14:54:03.866Z,97442.28
2023-02-22T14:56:44.364Z,97445.63
2023-02-22T14:59:24.183Z,97436.47
2023-02-22T15:02:11.672Z,97436.53
2023-02-22T15:04:52.502Z,97437.06
2023-02-22T15:07:29.558Z,97440.41
2023-02-22T15:10:20.963Z,97440.47
2023-02-22T15:13:09.915Z,97441.16
2023-02-22T15:15:48.254Z,97438.28
2023-02-22T15:18:29.431Z,97446.59
2023-02-22T15:21:08.407Z,97450.91
2023-02-22T15:23:44.732Z,97449.88
2023-02-22T15:26:20.590Z,97452.78
2023-02-22T15:28:59.895Z,97452.81
2023-02-22T15:31:36.529Z,97454.25
2023-02-22T15:34:24.378Z,97457.56
2023-02-22T15:37:06.504Z,97458.34
2023-02-22T15:39:43.998Z,97458.22
2023-02-22T15:42:21.094Z,97456.34
2023-02-22T15:44:56.224Z,97453.94
2023-02-22T15:47:32.130Z,97459.03
2023-02-22T15:50:25.739Z,97461.13
2023-02-22T15:53:02.646Z,97459.84
2023-02-22T15:55:38.434Z,97455.28
2023-02-22T15:58:22.353Z,97456.03
2023-02-22T16:01:03.197Z,97453.94
2023-02-22T16:03:45.053Z,97453.13
2023-02-22T16:06:33.580Z,97457.13
2023-02-22T16:09:11.068Z,97463.78
2023-02-22T16:11:47.148Z,97459.22
2023-02-22T16:14:30.294Z,97463.34
2023-02-22T16:17:31.890Z,97466.56
2023-02-22T16:20:35.427Z,97461.13
2023-02-22T16:23:26.196Z,97467.84
2023-02-22T16:26:21.632Z,97465.91
2023-02-22T16:28:56.846Z,97468.28
2023-02-22T16:31:33.890Z,97461.22
2023-02-22T16:34:10.980Z,97467.88
2023-02-22T16:36:46.965Z,97469.53
2023-02-22T16:39:27.254Z,97469.28
2023-02-22T16:42:03.652Z,97469.13
2023-02-22T16:44:36.888Z,97465.59
2023-02-22T16:47:13.574Z,97470.56
2023-02-22T16:49:53.063Z,97473.75
2023-02-22T16:52:28.140Z,97485.53
2023-02-22T16:55:02.028Z,97483.59
2023-02-22T16:57:35.258Z,97480.78
2023-02-22T17:00:15.599Z,97487.38
2023-02-22T17:02:49.288Z,97487.13
2023-02-22T17:05:24.079Z,97489.31
2023-02-22T17:07:57.694Z,97486.47
2023-02-22T17:10:31.158Z,97483.66
2023-02-22T17:13:21.211Z,97481.66
2023-02-22T17:15:56.578Z,97483.16
2023-02-22T17:18:34.112Z,97489.75
2023-02-22T17:21:10.273Z,97492.16
2023-02-22T17:23:45.938Z,97497.94
2023-02-22T17:26:19.774Z,97499.38
2023-02-22T17:28:53.094Z,97502.47
2023-02-22T17:31:31.043Z,97503.97
2023-02-22T17:34:06.453Z,97507.19
2023-02-22T17:36:42.129Z,97506.09
2023-02-22T17:39:15.340Z,97505.03
2023-02-22T17:41:55.125Z,97507.38
2023-02-22T17:44:30.196Z,97519.19
2023-02-22T17:47:03.462Z,97518.97
2023-02-22T17:49:36.730Z,97514.31
2023-02-22T17:52:15.790Z,97518.28
2023-02-22T17:54:49.091Z,97531.56
2023-02-22T17:57:22.640Z,97529.47
2023-02-22T17:59:56.049Z,97519.75
2023-02-22T18:02:29.385Z,97527.16
2023-02-22T18:05:03.087Z,97525.75
2023-02-22T18:07:37.698Z,97522.84
2023-02-22T18:10:12.180Z,97524.00
2023-02-22T18:12:45.394Z,97526.13
2023-02-22T18:15:18.782Z,97530.84
2023-02-22T18:17:51.998Z,97531.28
2023-02-22T18:20:31.232Z,97542.75
2023-02-22T18:23:08.168Z,97541.31
2023-02-22T18:25:42.367Z,97543.47
2023-02-22T18:28:16.467Z,97550.75
2023-02-22T18:30:50.448Z,97539.91
2023-02-22T18:33:23.895Z,97549.50
2023-02-22T18:35:59.165Z,97542.47
2023-02-22T18:38:33.796Z,97544.56
2023-02-22T18:41:09.984Z,97536.41
2023-02-22T18:43:43.709Z,97544.72
2023-02-22T18:46:20.381Z,97544.72
2023-02-22T18:48:56.846Z,97544.19
2023-02-22T18:51:30.654Z,97545.53
2023-02-22T18:54:05.380Z,97541.78
2023-02-22T18:56:40.224Z,97543.28
2023-02-22T18:59:14.424Z,97550.44
2023-02-22T19:01:49.172Z,97545.72
2023-02-22T19:04:22.552Z,97550.59
2023-02-22T19:06:57.623Z,97553.03
2023-02-22T19:09:33.032Z,97557.00
2023-02-22T19:12:07.359Z,97551.56
2023-02-22T19:14:42.421Z,97552.81
2023-02-22T19:17:16.715Z,97555.13
2023-02-22T19:19:50.030Z,97555.47
2023-02-22T19:22:26.296Z,97559.88
2023-02-22T19:25:01.422Z,97565.13
2023-02-22T19:27:35.657Z,97552.84
2023-02-22T19:32:47.470Z,97553.03
2023-02-22T19:35:27.194Z,97559.19
2023-02-22T19:38:00.471Z,97567.88
2023-02-22T19:40:35.078Z,97561.81
2023-02-22T19:43:08.451Z,97558.31
2023-02-22T19:45:41.896Z,97561.44
2023-02-22T19:48:15.380Z,97564.00
2023-02-22T19:50:50.063Z,97564.63
2023-02-22T19:53:23.343Z,97561.91
2023-02-22T19:55:58.067Z,97558.47
2023-02-22T19:58:36.679Z,97571.28
2023-02-22T20:01:14.641Z,97575.69
2023-02-22T20:03:52.248Z,97576.38
2023-02-22T20:06:29.203Z,97577.44
2023-02-22T20:09:03.615Z,97574.63
2023-02-22T20:11:38.401Z,97576.38
2023-02-22T20:14:17.902Z,97576.25
2023-02-22T20:16:51.493Z,97581.47
2023-02-22T20:19:26.922Z,97585.69
2023-02-22T20:22:00.377Z,97578.06
2023-02-22T20:24:34.101Z,97583.72
2023-02-22T20:27:09.232Z,97580.03
2023-02-22T20:29:42.507Z,97579.06
2023-02-22T20:32:18.802Z,97585.34
2023-02-22T20:34:52.269Z,97586.22
2023-02-22T20:37:25.555Z,97589.69
2023-02-22T20:39:59.910Z,97592.34
2023-02-22T20:42:34.530Z,97588.94
2023-02-22T20:45:11.593Z,97588.81
2023-02-22T20:47:45.128Z,97594.53
2023-02-22T20:50:18.791Z,97600.41
2023-02-22T20:52:52.033Z,97597.78
2023-02-22T20:55:25.884Z,97594.00
2023-02-22T20:58:00.971Z,97595.47
2023-02-22T21:00:35.744Z,97603.03
2023-02-22T21:03:09.502Z,97602.16
2023-02-22T21:05:44.767Z,97606.25
2023-02-22T21:08:18.135Z,97598.44
2023-02-22T21:10:51.628Z,97595.78
2023-02-22T21:13:26.868Z,97599.63
2023-02-22T21:16:00.404Z,97604.03
2023-02-22T21:18:34.008Z,97595.41
2023-02-22T21:21:10.464Z,97598.75
2023-02-22T21:23:49.701Z,97602.06
2023-02-22T21:26:27.179Z,97596.09
2023-02-22T21:29:05.804Z,97597.69
2023-02-22T21:31:39.082Z,97599.91
2023-02-22T21:34:17.539Z,97600.03
2023-02-22T21:36:52.564Z,97595.22
2023-02-22T21:39:28.662Z,97600.75
2023-02-22T21:42:02.197Z,97592.31
2023-02-22T21:44:37.234Z,97592.31
2023-02-22T21:47:10.546Z,97589.00
2023-02-22T21:49:43.920Z,97588.31
2023-02-22T21:52:18.428Z,97585.66
2023-02-22T21:54:51.700Z,97583.91
2023-02-22T21:57:26.249Z,97587.25
2023-02-22T22:00:00.931Z,97589.22
2023-02-22T22:02:34.337Z,97590.13
2023-02-22T22:05:09.212Z,97588.25
2023-02-22T22:07:44.677Z,97594.41
2023-02-22T22:10:24.566Z,97588.19
2023-02-22T22:12:59.530Z,97588.44
2023-02-22T22:15:36.962Z,97582.28
2023-02-22T22:18:11.488Z,97582.28
2023-02-22T22:20:45.155Z,97583.97
2023-02-22T22:23:18.340Z,97589.31
2023-02-22T22:25:51.565Z,97591.00
2023-02-22T22:28:27.040Z,97585.91
2023-02-22T22:31:02.554Z,97586.09
2023-02-22T22:33:37.775Z,97591.88
2023-02-22T22:36:14.313Z,97596.88
2023-02-22T22:38:48.137Z,97591.78
2023-02-22T22:41:22.573Z,97591.88
2023-02-22T22:43:56.194Z,97593.34
2023-02-22T22:46:31.668Z,97596.69
2023-02-22T22:49:04.929Z,97591.50
2023-02-22T22:51:40.969Z,97591.41
2023-02-22T22:54:14.563Z,97592.78
2023-02-22T22:56:47.857Z,97591.72
2023-02-22T22:59:21.718Z,97591.03
2023-02-22T23:01:56.722Z,97596.19
2023-02-22T23:04:30.487Z,97591.03
2023-02-22T23:07:05.267Z,97593.56
2023-02-22T23:09:39.711Z,97594.63
2023-02-22T23:12:16.929Z,97601.19
2023-02-22T23:14:52.116Z,97594.31
2023-02-22T23:17:31.454Z,97600.59
2023-02-22T23:20:11.293Z,97595.31
2023-02-22T23:22:47.312Z,97600.38
2023-02-22T23:25:21.639Z,97598.84
2023-02-22T23:27:55.796Z,97597.09
2023-02-22T23:30:30.640Z,97590.53
2023-02-22T23:33:05.325Z,97591.28
2023-02-22T23:35:38.678Z,97588.66
2023-02-22T23:38:11.872Z,97588.66
2023-02-22T23:40:46.121Z,97592.88
2023-02-22T23:43:21.924Z,97594.53
2023-02-22T23:45:57.140Z,97589.34
2023-02-22T23:48:32.821Z,97594.63
2023-02-22T23:51:11.210Z,97594.63
2023-02-22T23:53:46.110Z,97590.34
2023-02-22T23:56:22.043Z,97595.09
2023-02-22T23:58:57.455Z,97594.91
